createdAt,value
2023-12-11T00:01:13.646Z,6.07
2023-12-11T00:03:41.937Z,6.07
2023-12-11T00:06:10.495Z,6.15
2023-12-11T00:08:38.337Z,5.95
2023-12-11T00:11:06.690Z,5.57
2023-12-11T00:13:34.627Z,6.15
2023-12-11T00:16:03.951Z,6.97
2023-12-11T00:18:32.208Z,5.90
2023-12-11T00:21:02.409Z,6.93
2023-12-11T00:23:30.545Z,6.20
2023-12-11T00:25:58.832Z,6.78
2023-12-11T00:28:27.148Z,6.95
2023-12-11T00:30:55.011Z,6.78
2023-12-11T00:33:25.911Z,7.22
2023-12-11T00:35:53.867Z,6.60
2023-12-11T00:38:21.996Z,7.10
2023-12-11T00:40:49.910Z,6.53
2023-12-11T00:43:18.030Z,7.30
2023-12-11T00:45:46.129Z,6.93
2023-12-11T00:48:14.712Z,6.85
2023-12-11T00:50:44.523Z,7.13
2023-12-11T00:53:12.640Z,6.33
2023-12-11T00:55:40.672Z,6.93
2023-12-11T00:58:08.547Z,6.47
2023-12-11T01:00:36.508Z,7.57
2023-12-11T01:03:05.043Z,7.63
2023-12-11T01:05:33.223Z,7.57
2023-12-11T01:08:02.502Z,6.68
2023-12-11T01:10:30.602Z,6.70
2023-12-11T01:12:58.517Z,6.82
2023-12-11T01:15:26.842Z,6.07
2023-12-11T01:17:55.029Z,6.43
2023-12-11T01:20:23.246Z,6.88
2023-12-11T01:22:51.205Z,7.07
2023-12-11T01:25:20.602Z,7.80
2023-12-11T01:27:48.535Z,6.23
2023-12-11T01:30:16.592Z,6.10
2023-12-11T01:32:44.529Z,6.50
2023-12-11T01:35:12.468Z,6.35
2023-12-11T01:37:40.433Z,6.03
2023-12-11T01:40:10.191Z,5.97
2023-12-11T01:42:39.553Z,7.40
2023-12-11T01:45:08.417Z,6.37
2023-12-11T01:47:36.521Z,7.23
2023-12-11T01:50:04.726Z,8.13
2023-12-11T01:52:32.747Z,6.25
2023-12-11T01:55:00.841Z,6.20
2023-12-11T01:57:28.977Z,6.50
2023-12-11T01:59:59.000Z,6.93
2023-12-11T02:02:27.072Z,7.20
2023-12-11T02:04:55.425Z,6.20
2023-12-11T02:07:23.616Z,8.15
2023-12-11T02:09:51.718Z,6.63
2023-12-11T02:12:19.702Z,7.22
2023-12-11T02:14:47.571Z,6.85
2023-12-11T02:17:16.959Z,7.47
2023-12-11T02:19:44.921Z,7.13
2023-12-11T02:22:13.216Z,6.78
2023-12-11T02:24:49.404Z,6.60
2023-12-11T02:27:18.783Z,7.20
2023-12-11T02:29:46.702Z,7.13
2023-12-11T02:32:17.826Z,6.30
2023-12-11T02:34:48.828Z,7.10
2023-12-11T02:37:17.076Z,6.60
2023-12-11T02:39:46.706Z,5.95
2023-12-11T02:42:14.734Z,7.80
2023-12-11T02:44:43.984Z,6.43
2023-12-11T02:47:11.925Z,6.33
2023-12-11T02:49:40.114Z,5.57
2023-12-11T02:52:08.340Z,6.90
2023-12-11T02:54:36.272Z,7.00
2023-12-11T02:57:04.230Z,6.82
2023-12-11T02:59:32.308Z,6.13
2023-12-11T03:02:01.644Z,5.32
2023-12-11T03:04:29.942Z,5.90
2023-12-11T03:06:58.017Z,5.85
2023-12-11T03:09:25.931Z,5.90
2023-12-11T03:11:55.150Z,5.32
2023-12-11T03:14:22.956Z,5.90
2023-12-11T03:16:50.919Z,7.07
2023-12-11T03:19:20.307Z,6.22
2023-12-11T03:21:48.314Z,7.40
2023-12-11T03:24:16.228Z,4.63
2023-12-11T03:26:44.179Z,5.97
2023-12-11T03:29:12.294Z,6.07
2023-12-11T03:31:40.934Z,6.43
2023-12-11T03:34:08.985Z,5.93
2023-12-11T03:36:38.416Z,6.32
2023-12-11T03:39:08.720Z,5.67
2023-12-11T03:41:36.648Z,5.57
2023-12-11T03:44:04.685Z,6.28
2023-12-11T03:46:32.552Z,7.00
2023-12-11T03:49:00.549Z,6.43
2023-12-11T03:51:28.451Z,5.03
2023-12-11T03:53:58.322Z,6.13
2023-12-11T03:56:26.553Z,5.77
2023-12-11T03:58:54.498Z,5.65
2023-12-11T04:01:22.737Z,5.65
2023-12-11T04:03:50.805Z,5.85
2023-12-11T04:06:18.891Z,4.97
2023-12-11T04:08:46.770Z,6.65
2023-12-11T04:11:16.089Z,6.13
2023-12-11T04:13:43.991Z,6.33
2023-12-11T04:16:11.998Z,5.72
2023-12-11T04:18:40.757Z,6.95
2023-12-11T04:21:09.508Z,6.05
2023-12-11T04:26:06.237Z,5.80
2023-12-11T04:28:35.513Z,6.30
2023-12-11T04:31:03.518Z,5.60
2023-12-11T04:33:34.185Z,6.00
2023-12-11T04:36:02.249Z,5.97
2023-12-11T04:38:30.479Z,5.90
2023-12-11T04:40:58.824Z,5.28
2023-12-11T04:43:29.128Z,5.60
2023-12-11T04:46:01.037Z,5.03
2023-12-11T04:48:30.271Z,5.80
2023-12-11T04:50:58.233Z,5.80
2023-12-11T04:53:26.152Z,6.03
2023-12-11T04:55:54.223Z,5.63
2023-12-11T04:58:22.486Z,6.90
2023-12-11T05:00:50.600Z,5.05
2023-12-11T05:03:20.129Z,5.03
2023-12-11T05:05:48.139Z,5.43
2023-12-11T05:08:16.067Z,5.30
2023-12-11T05:10:44.262Z,6.25
2023-12-11T05:13:12.348Z,6.13
2023-12-11T05:15:40.354Z,5.07
2023-12-11T05:18:08.472Z,5.68
2023-12-11T05:20:37.802Z,5.80
2023-12-11T05:23:06.014Z,6.20
2023-12-11T05:25:34.042Z,5.47
2023-12-11T05:28:01.992Z,6.85
2023-12-11T05:30:30.147Z,6.47
2023-12-11T05:32:58.434Z,5.57
2023-12-11T05:35:26.721Z,6.50
2023-12-11T05:37:59.710Z,4.97
2023-12-11T05:40:28.024Z,5.50
2023-12-11T05:42:55.913Z,4.55
2023-12-11T05:45:23.930Z,5.55
2023-12-11T05:47:51.854Z,4.68
2023-12-11T05:50:20.594Z,4.93
2023-12-11T05:52:48.899Z,4.47
2023-12-11T05:55:18.995Z,4.63
2023-12-11T05:57:48.732Z,5.53
2023-12-11T06:00:17.881Z,3.47
2023-12-11T06:05:14.204Z,3.10
2023-12-11T06:07:42.346Z,3.50
2023-12-11T06:10:10.504Z,4.05
2023-12-11T06:12:39.834Z,4.38
2023-12-11T06:15:08.612Z,3.77
2023-12-11T06:20:06.074Z,4.97
2023-12-11T06:22:34.405Z,4.80
2023-12-11T06:25:03.474Z,3.72
2023-12-11T06:27:31.947Z,3.97
2023-12-11T06:30:01.524Z,3.95
2023-12-11T06:32:29.828Z,4.97
2023-12-11T06:34:57.846Z,5.50
2023-12-11T06:37:25.866Z,4.95
2023-12-11T06:39:54.202Z,4.32
2023-12-11T06:42:22.085Z,3.88
2023-12-11T06:44:50.309Z,3.80
2023-12-11T06:47:19.679Z,3.58
2023-12-11T06:49:48.194Z,4.10
2023-12-11T06:52:16.992Z,3.58
2023-12-11T06:54:45.165Z,3.83
2023-12-11T06:57:13.238Z,3.63
2023-12-11T06:59:41.130Z,4.25
2023-12-11T07:02:09.225Z,3.60
2023-12-11T07:04:39.216Z,3.40
2023-12-11T07:07:08.109Z,4.07
2023-12-11T07:12:05.391Z,3.60
2023-12-11T07:14:33.315Z,4.32
2023-12-11T07:17:01.301Z,3.20
2023-12-11T07:19:29.590Z,3.15
2023-12-11T07:21:58.986Z,4.03
2023-12-11T07:24:26.882Z,4.97
2023-12-11T07:26:54.743Z,5.35
2023-12-11T07:29:23.534Z,4.28
2023-12-11T07:34:23.040Z,2.60
2023-12-11T07:36:52.763Z,3.83
2023-12-11T07:39:22.128Z,3.37
2023-12-11T07:41:49.982Z,3.10
2023-12-11T07:44:17.881Z,3.47
2023-12-11T07:46:45.767Z,3.17
2023-12-11T07:49:15.302Z,3.65
2023-12-11T07:51:44.406Z,3.13
2023-12-11T07:54:13.385Z,3.57
2023-12-11T07:59:13.115Z,3.80
2023-12-11T08:01:41.142Z,3.97
2023-12-11T08:04:09.446Z,4.45
2023-12-11T08:06:41.991Z,3.88
2023-12-11T08:09:10.300Z,4.57
2023-12-11T08:11:38.505Z,4.65
2023-12-11T08:14:07.773Z,4.60
2023-12-11T08:16:35.770Z,5.10
2023-12-11T08:19:04.023Z,5.18
2023-12-11T08:21:32.151Z,4.38
2023-12-11T08:24:00.360Z,3.90
2023-12-11T08:26:28.281Z,4.93
2023-12-11T08:28:59.069Z,5.05
2023-12-11T08:31:29.639Z,4.60
2023-12-11T08:33:57.633Z,5.70
2023-12-11T08:36:25.572Z,5.30
2023-12-11T08:38:53.805Z,4.32
2023-12-11T08:41:21.657Z,4.63
2023-12-11T08:43:49.499Z,4.97
2023-12-11T08:46:17.506Z,4.17
2023-12-11T08:48:47.393Z,4.00
2023-12-11T08:51:15.453Z,4.57
2023-12-11T08:53:43.347Z,5.07
2023-12-11T08:56:12.001Z,5.13
2023-12-11T08:58:40.148Z,4.93
2023-12-11T09:01:08.306Z,4.93
2023-12-11T09:03:36.317Z,4.95
2023-12-11T09:06:06.269Z,5.45
2023-12-11T09:08:34.192Z,4.40
2023-12-11T09:11:02.079Z,4.97
2023-12-11T09:13:30.524Z,5.18
2023-12-11T09:15:58.669Z,4.15
2023-12-11T09:18:27.063Z,5.78
2023-12-11T09:20:55.102Z,5.95
2023-12-11T09:23:24.415Z,4.55
2023-12-11T09:25:52.461Z,5.90
2023-12-11T09:28:20.454Z,5.28
2023-12-11T09:30:48.855Z,4.07
2023-12-11T09:33:16.852Z,4.20
2023-12-11T09:35:45.280Z,4.47
2023-12-11T09:38:13.301Z,4.78
2023-12-11T09:40:42.673Z,5.13
2023-12-11T09:43:11.110Z,4.53
2023-12-11T09:45:40.371Z,4.32
2023-12-11T09:48:14.434Z,3.93
2023-12-11T09:50:43.495Z,4.40
2023-12-11T09:53:12.115Z,5.05
2023-12-11T09:55:39.988Z,5.45
2023-12-11T09:58:10.310Z,4.18
2023-12-11T10:00:38.568Z,4.23
2023-12-11T10:03:09.327Z,4.72
2023-12-11T10:05:38.513Z,3.87
2023-12-11T10:08:06.747Z,4.50
2023-12-11T10:10:35.332Z,4.35
2023-12-11T10:15:34.742Z,3.30
2023-12-11T10:18:08.339Z,3.27
2023-12-11T10:20:37.889Z,2.47
2023-12-11T10:23:24.552Z,2.70
2023-12-11T10:25:54.888Z,2.30
2023-12-11T10:28:24.996Z,3.27
2023-12-11T10:30:56.525Z,2.70
2023-12-11T10:33:26.442Z,3.00
2023-12-11T10:35:55.491Z,2.40
2023-12-11T10:40:54.202Z,2.70
2023-12-11T10:43:22.407Z,2.77
2023-12-11T10:45:52.084Z,2.53
2023-12-11T10:48:23.213Z,2.30
2023-12-11T10:50:51.870Z,3.13
2023-12-11T10:53:20.232Z,2.33
2023-12-11T10:55:49.220Z,2.65
2023-12-11T10:58:17.576Z,2.83
2023-12-11T11:00:47.577Z,2.47
2023-12-11T11:03:15.996Z,2.47
2023-12-11T11:05:45.862Z,3.53
2023-12-11T11:08:25.889Z,2.53
2023-12-11T11:10:59.165Z,2.63
2023-12-11T11:13:33.348Z,2.57
2023-12-11T11:16:01.566Z,2.80
2023-12-11T11:18:29.725Z,2.33
2023-12-11T11:21:12.219Z,2.25
2023-12-11T11:23:44.700Z,1.93
2023-12-11T11:26:34.698Z,2.53
2023-12-11T11:29:02.688Z,2.53
2023-12-11T11:31:52.247Z,1.58
2023-12-11T11:34:45.487Z,2.27
2023-12-11T11:37:18.828Z,2.37
2023-12-11T11:40:05.682Z,1.47
2023-12-11T11:42:36.596Z,1.73
2023-12-11T11:45:06.474Z,1.90
2023-12-11T11:47:35.683Z,1.77
2023-12-11T11:50:08.622Z,2.07
2023-12-11T11:52:40.327Z,1.47
2023-12-11T11:55:13.519Z,1.43
2023-12-11T11:57:42.093Z,1.40
2023-12-11T12:00:10.788Z,2.08
2023-12-11T12:02:38.892Z,1.95
2023-12-11T12:05:11.578Z,2.30
2023-12-11T12:07:42.245Z,2.00
2023-12-11T12:10:14.118Z,1.80
2023-12-11T12:12:42.110Z,2.03
2023-12-11T12:15:11.681Z,2.15
2023-12-11T12:17:40.522Z,2.63
2023-12-11T12:20:11.942Z,2.23
2023-12-11T12:22:42.892Z,2.23
2023-12-11T12:25:16.338Z,2.20
2023-12-11T12:27:45.266Z,2.50
2023-12-11T12:32:41.354Z,2.25
2023-12-11T12:35:10.855Z,2.33
2023-12-11T12:37:39.702Z,2.20
2023-12-11T12:40:10.764Z,2.80
2023-12-11T12:42:39.066Z,1.83
2023-12-11T12:45:08.514Z,2.70
2023-12-11T12:47:46.650Z,2.20
2023-12-11T12:50:21.368Z,2.97
2023-12-11T12:52:49.212Z,2.33
2023-12-11T12:55:18.758Z,2.30
2023-12-11T12:57:46.871Z,2.57
2023-12-11T13:00:21.505Z,2.88
2023-12-11T13:02:50.338Z,2.00
2023-12-11T13:07:59.144Z,2.40
2023-12-11T13:10:28.385Z,2.10
2023-12-11T13:12:56.189Z,2.00
2023-12-11T13:15:24.035Z,2.57
2023-12-11T13:17:54.890Z,2.13
2023-12-11T13:20:22.868Z,2.30
2023-12-11T13:22:50.730Z,2.38
2023-12-11T13:25:18.599Z,2.10
2023-12-11T13:27:48.529Z,2.00
2023-12-11T13:30:18.282Z,2.37
2023-12-11T13:32:46.133Z,2.17
2023-12-11T13:35:14.023Z,2.30
2023-12-11T13:37:41.766Z,2.60
2023-12-11T13:40:12.349Z,2.93
2023-12-11T13:42:40.929Z,2.60
2023-12-11T13:45:11.094Z,2.60
2023-12-11T13:47:39.623Z,2.83
2023-12-11T13:50:10.026Z,2.95
2023-12-11T13:52:37.885Z,2.53
2023-12-11T13:55:06.460Z,2.80
2023-12-11T13:57:34.921Z,2.45
2023-12-11T14:00:02.743Z,2.50
2023-12-11T14:02:59.145Z,2.50
2023-12-11T14:05:20.699Z,2.43
2023-12-11T14:10:18.095Z,3.00
2023-12-11T14:12:46.303Z,2.60
2023-12-11T14:15:14.060Z,3.05
2023-12-11T14:17:43.276Z,2.77
2023-12-11T14:20:12.911Z,2.30
2023-12-11T14:22:41.294Z,2.50
2023-12-11T14:25:10.191Z,3.08
2023-12-11T14:27:38.167Z,2.35
2023-12-11T14:30:06.999Z,2.33
2023-12-11T14:35:06.830Z,2.13
2023-12-11T14:37:35.066Z,2.20
2023-12-11T14:40:03.294Z,1.77
2023-12-11T14:42:32.361Z,1.90
2023-12-11T14:45:00.449Z,1.70
2023-12-11T14:47:28.570Z,1.90
2023-12-11T14:49:57.206Z,2.40
2023-12-11T14:52:27.318Z,2.00
2023-12-11T14:54:55.321Z,2.20
2023-12-11T14:57:23.104Z,2.25
2023-12-11T14:59:51.028Z,2.23
2023-12-11T15:02:19.031Z,2.15
2023-12-11T15:04:46.934Z,1.90
2023-12-11T15:07:14.656Z,2.30
2023-12-11T15:09:43.814Z,2.40
2023-12-11T15:12:11.595Z,2.60
2023-12-11T15:14:39.897Z,1.98
2023-12-11T15:17:07.649Z,2.20
2023-12-11T15:19:35.438Z,2.10
2023-12-11T15:22:03.348Z,2.47
2023-12-11T15:24:31.454Z,2.35
2023-12-11T15:27:00.616Z,3.05
2023-12-11T15:29:28.305Z,2.67
2023-12-11T15:31:56.632Z,2.20
2023-12-11T15:34:25.972Z,2.63
2023-12-11T15:36:53.917Z,2.42
2023-12-11T15:39:24.776Z,2.97
2023-12-11T15:41:52.612Z,2.20
2023-12-11T15:44:22.602Z,2.27
2023-12-11T15:46:50.562Z,2.80
2023-12-11T15:49:19.459Z,2.95
2023-12-11T15:51:52.674Z,3.13
2023-12-11T15:54:20.703Z,3.20
2023-12-11T15:56:48.637Z,3.70
2023-12-11T15:59:16.469Z,3.80
2023-12-11T16:01:46.628Z,3.67
2023-12-11T16:04:14.529Z,3.50
2023-12-11T16:06:42.397Z,3.40
2023-12-11T16:09:12.244Z,3.65
2023-12-11T16:11:40.645Z,4.10
2023-12-11T16:14:08.458Z,3.50
2023-12-11T16:16:38.463Z,3.13
2023-12-11T16:19:08.810Z,4.43
2023-12-11T16:21:39.135Z,4.13
2023-12-11T16:24:07.691Z,4.33
2023-12-11T16:26:35.737Z,3.95
2023-12-11T16:29:03.482Z,5.03
2023-12-11T16:31:31.678Z,3.40
2023-12-11T16:34:00.503Z,3.67
2023-12-11T16:36:30.327Z,3.43
2023-12-11T16:38:58.121Z,3.73
2023-12-11T16:41:26.993Z,4.27
2023-12-11T16:43:55.458Z,3.47
2023-12-11T16:46:23.331Z,4.40
2023-12-11T16:48:51.609Z,3.60
2023-12-11T16:51:19.622Z,4.22
2023-12-11T16:53:49.148Z,3.70
2023-12-11T16:56:17.104Z,3.30
2023-12-11T16:58:46.064Z,3.87
2023-12-11T17:01:14.850Z,4.07
2023-12-11T17:03:43.246Z,4.47
2023-12-11T17:06:16.226Z,4.55
2023-12-11T17:08:43.981Z,4.47
2023-12-11T17:11:13.436Z,4.37
2023-12-11T17:13:42.353Z,4.30
2023-12-11T17:16:10.608Z,4.50
2023-12-11T17:18:38.504Z,5.85
2023-12-11T17:21:08.343Z,4.72
2023-12-11T17:23:38.369Z,5.27
2023-12-11T17:26:06.604Z,8.47
2023-12-11T17:28:36.062Z,9.98
2023-12-11T17:31:03.901Z,12.20
2023-12-11T17:33:32.355Z,10.30
2023-12-11T17:36:00.217Z,13.27
2023-12-11T17:38:28.089Z,8.43
2023-12-11T17:40:55.821Z,8.98
2023-12-11T17:43:24.302Z,6.60
2023-12-11T17:45:53.496Z,5.22
2023-12-11T17:48:21.425Z,5.87
2023-12-11T17:50:49.574Z,5.28
2023-12-11T17:53:17.288Z,4.95
2023-12-11T17:55:45.245Z,4.85
2023-12-11T17:58:13.087Z,5.33
2023-12-11T18:00:40.842Z,5.13
2023-12-11T18:03:10.010Z,6.00
2023-12-11T18:05:39.423Z,5.83
2023-12-11T18:08:07.284Z,5.70
2023-12-11T18:10:35.141Z,6.13
2023-12-11T18:13:02.984Z,6.00
2023-12-11T18:15:31.095Z,7.67
2023-12-11T18:17:58.911Z,8.50
2023-12-11T18:20:28.109Z,8.13
2023-12-11T18:22:55.853Z,8.00
2023-12-11T18:25:23.950Z,8.43
2023-12-11T18:27:51.786Z,7.53
2023-12-11T18:30:19.682Z,8.57
2023-12-11T18:32:47.575Z,7.68
2023-12-11T18:35:15.525Z,7.43
2023-12-11T18:37:44.893Z,6.72
2023-12-11T18:40:15.021Z,6.97
2023-12-11T18:42:44.579Z,7.50
2023-12-11T18:45:13.036Z,6.83
2023-12-11T18:47:40.856Z,9.40
2023-12-11T18:50:09.230Z,7.67
2023-12-11T18:52:37.053Z,8.93
2023-12-11T18:55:06.970Z,7.47
2023-12-11T18:57:35.112Z,8.17
2023-12-11T19:00:02.967Z,8.77
2023-12-11T19:02:31.058Z,10.73
2023-12-11T19:04:58.947Z,11.50
2023-12-11T19:07:27.165Z,10.90
2023-12-11T19:09:55.036Z,11.60
2023-12-11T19:12:24.132Z,11.87
2023-12-11T19:14:51.915Z,10.83
2023-12-11T19:17:19.698Z,12.07
2023-12-11T19:19:47.512Z,13.10
2023-12-11T19:22:15.310Z,11.57
2023-12-11T19:24:43.141Z,12.83
2023-12-11T19:27:10.903Z,14.00
2023-12-11T19:29:40.233Z,13.23
2023-12-11T19:32:09.035Z,12.30
2023-12-11T19:34:36.975Z,12.40
2023-12-11T19:37:05.510Z,11.00
2023-12-11T19:39:33.391Z,11.38
2023-12-11T19:42:01.181Z,11.23
2023-12-11T19:44:29.026Z,11.17
2023-12-11T19:46:58.344Z,10.63
2023-12-11T19:49:27.959Z,11.63
2023-12-11T19:51:56.146Z,10.63
2023-12-11T19:54:23.905Z,11.40
2023-12-11T19:56:51.673Z,12.13
2023-12-11T19:59:20.210Z,11.43
2023-12-11T20:01:48.201Z,12.10
2023-12-11T20:04:17.802Z,12.38
2023-12-11T20:06:45.612Z,12.40
2023-12-11T20:09:13.822Z,12.13
2023-12-11T20:11:42.329Z,14.70
2023-12-11T20:14:10.102Z,13.80
2023-12-11T20:16:37.875Z,13.20
2023-12-11T20:19:05.785Z,12.80
2023-12-11T20:21:35.378Z,10.55
2023-12-11T20:24:03.129Z,9.27
2023-12-11T20:26:31.112Z,11.32
2023-12-11T20:28:59.622Z,10.90
2023-12-11T20:31:28.736Z,10.07
2023-12-11T20:33:56.636Z,10.27
2023-12-11T20:36:25.025Z,10.90
2023-12-11T20:38:54.961Z,9.53
2023-12-11T20:41:23.587Z,11.60
2023-12-11T20:43:52.617Z,9.30
2023-12-11T20:46:24.631Z,8.87
2023-12-11T20:48:53.770Z,9.10
2023-12-11T20:51:23.093Z,10.00
2023-12-11T20:53:52.753Z,9.27
2023-12-11T20:56:22.797Z,9.13
2023-12-11T20:58:51.527Z,8.83
2023-12-11T21:01:30.191Z,10.77
2023-12-11T21:03:59.638Z,9.53
2023-12-11T21:06:28.747Z,8.63
2023-12-11T21:08:57.151Z,8.87
2023-12-11T21:11:27.134Z,8.48
2023-12-11T21:13:55.002Z,8.80
2023-12-11T21:16:22.930Z,8.32
2023-12-11T21:18:51.787Z,7.90
2023-12-11T21:21:21.041Z,8.00
2023-12-11T21:23:49.350Z,8.20
2023-12-11T21:26:17.467Z,8.35
2023-12-11T21:28:47.336Z,7.88
2023-12-11T21:31:19.519Z,8.80
2023-12-11T21:33:47.520Z,8.87
2023-12-11T21:36:15.451Z,7.85
2023-12-11T21:38:45.191Z,7.63
2023-12-11T21:41:15.345Z,7.30
2023-12-11T21:43:44.347Z,6.73
2023-12-11T21:46:14.474Z,6.27
2023-12-11T21:48:44.829Z,6.33
2023-12-11T21:51:15.950Z,6.63
2023-12-11T21:53:44.378Z,5.63
2023-12-11T21:56:12.242Z,4.93
2023-12-11T21:58:40.178Z,5.17
2023-12-11T22:01:08.315Z,4.82
2023-12-11T22:03:37.890Z,4.30
2023-12-11T22:06:06.051Z,5.00
2023-12-11T22:08:33.778Z,4.72
2023-12-11T22:11:01.614Z,4.87
2023-12-11T22:13:30.147Z,4.97
2023-12-11T22:15:58.689Z,5.13
2023-12-11T22:18:26.816Z,5.32
2023-12-11T22:20:55.990Z,4.82
2023-12-11T22:23:23.812Z,5.57
2023-12-11T22:25:51.601Z,4.00
2023-12-11T22:28:19.400Z,4.23
2023-12-11T22:30:47.655Z,4.27
2023-12-11T22:33:15.435Z,4.07
2023-12-11T22:35:43.284Z,4.27
2023-12-11T22:38:13.235Z,3.55
2023-12-11T22:40:41.373Z,4.23
2023-12-11T22:43:09.215Z,4.00
2023-12-11T22:45:38.264Z,3.35
2023-12-11T22:48:07.191Z,4.27
2023-12-11T22:50:35.023Z,4.57
2023-12-11T22:53:02.883Z,4.17
2023-12-11T22:55:32.344Z,4.32
2023-12-11T22:58:06.403Z,4.40
2023-12-11T23:00:41.621Z,4.33
2023-12-11T23:03:09.602Z,3.95
2023-12-11T23:05:37.505Z,3.63
2023-12-11T23:08:05.748Z,4.32
2023-12-11T23:10:35.044Z,3.97
2023-12-11T23:13:04.253Z,4.63
2023-12-11T23:15:32.280Z,4.97
2023-12-11T23:18:00.101Z,4.20
2023-12-11T23:20:27.962Z,4.03
2023-12-11T23:22:56.532Z,3.30
2023-12-11T23:25:24.535Z,3.28
2023-12-11T23:27:53.722Z,3.55
2023-12-11T23:30:21.464Z,3.10
2023-12-11T23:32:49.275Z,3.13
2023-12-11T23:35:18.251Z,2.63
2023-12-11T23:37:47.989Z,3.10
2023-12-11T23:40:17.212Z,2.70
2023-12-11T23:42:45.644Z,3.13
2023-12-11T23:45:14.809Z,2.70
2023-12-11T23:47:43.043Z,3.20
2023-12-11T23:50:11.548Z,2.63
2023-12-11T23:52:39.424Z,2.75
2023-12-11T23:55:08.166Z,2.67
